Terminal Aerodrome Forecast
Issued by NWS

Home | Current Version | Previous Version | Text Only | Print | Product List | Glossary On
Versions: 1 2 3 4 5 6 7 8 9 10 11 12 13 14 15 16 17 18 19
000
FTUS43 KDTX 281900 AAA
TAFMBS
TAF AMD
KMBS 281934Z 2820/2918 34012KT P6SM BKN050
     FM282200 33010KT P6SM SCT050
     FM290400 29005KT P6SM SCT050 BKN120 OVC250
     FM291500 28010KT P6SM VCSH BKN050=

USA.gov is the U.S. government's official web portal to all federal, state and local government web resources and services.